Time;durP1;ratioP1;P1;durP2;ratioP2;P2;SDS_P1;SDS_P2;PMS_P1;PMS_P2;Temp;Humidity;BMP_temperature;BMP_pressure;BME280_temperature;BME280_humidity;BME280_pressure;Samples;Min_cycle;Max_cycle;Signal;HPM_P1;HPM_P2
2023/08/28 00:00:10;;;;;;;10.10;5.60;;;14.90;80.70;;;;;;9176323;19;20022;-69
2023/08/28 00:03:16;;;;;;;9.30;6.38;;;14.80;80.70;;;;;;9176176;19;20041;-69
2023/08/28 00:06:26;;;;;;;11.02;5.95;;;14.90;80.70;;;;;;9177250;19;20048;-68
2023/08/28 00:09:32;;;;;;;13.13;6.22;;;14.80;80.70;;;;;;9175505;19;20094;-70
2023/08/28 00:12:40;;;;;;;8.10;5.82;;;14.90;80.80;;;;;;9176334;19;20030;-68
2023/08/28 00:15:46;;;;;;;7.38;5.70;;;14.80;80.80;;;;;;9175079;19;20018;-70
2023/08/28 00:18:53;;;;;;;14.68;6.97;;;14.90;80.90;;;;;;9176231;19;20360;-71
2023/08/28 00:22:01;;;;;;;10.70;5.38;;;14.80;80.90;;;;;;9178466;19;20361;-68
2023/08/28 00:25:09;;;;;;;9.38;6.13;;;14.80;80.90;;;;;;9174250;19;20022;-69
2023/08/28 00:28:15;;;;;;;9.48;5.78;;;14.80;80.90;;;;;;9171260;19;20482;-69
2023/08/28 00:31:22;;;;;;;10.13;5.97;;;14.80;81.00;;;;;;9175118;19;20015;-69
2023/08/28 00:34:28;;;;;;;10.75;5.97;;;14.80;81.00;;;;;;9175077;19;20015;-69
2023/08/28 00:37:39;;;;;;;6.63;4.93;;;14.80;81.00;;;;;;9174965;19;20432;-70
2023/08/28 00:40:45;;;;;;;13.40;5.53;;;14.70;81.10;;;;;;9174985;19;20018;-69
2023/08/28 00:43:55;;;;;;;15.85;6.22;;;14.70;80.90;;;;;;9173475;19;20506;-69
2023/08/28 00:47:02;;;;;;;7.95;5.97;;;14.70;81.00;;;;;;9176182;19;20130;-69
2023/08/28 00:50:10;;;;;;;11.30;6.15;;;14.70;81.00;;;;;;9180859;19;20018;-69
2023/08/28 00:53:39;;;;;;;9.82;5.93;;;14.70;81.10;;;;;;9184073;19;20524;-69
2023/08/28 00:56:48;;;;;;;11.63;5.80;;;14.70;81.10;;;;;;9184077;19;20034;-69
2023/08/28 00:59:54;;;;;;;7.95;5.95;;;14.70;81.20;;;;;;9182979;19;20044;-69
2023/08/28 01:03:02;;;;;;;10.32;6.78;;;14.70;81.20;;;;;;9185023;19;20014;-68
2023/08/28 01:06:17;;;;;;;11.55;6.53;;;14.60;81.40;;;;;;9180538;19;20006;-69
2023/08/28 01:09:34;;;;;;;8.75;6.57;;;14.60;81.50;;;;;;9185121;19;20022;-68
2023/08/28 01:12:48;;;;;;;13.02;6.60;;;14.70;82.20;;;;;;9185052;19;20010;-68
2023/08/28 01:15:59;;;;;;;12.68;7.18;;;14.70;85.20;;;;;;9183862;19;20022;-69
2023/08/28 01:19:06;;;;;;;11.13;7.22;;;14.70;88.40;;;;;;9182787;19;20018;-70
2023/08/28 01:22:22;;;;;;;11.35;7.82;;;14.60;91.30;;;;;;9182846;19;20016;-68
2023/08/28 01:25:32;;;;;;;10.15;7.38;;;14.50;80.90;;;;;;9181124;19;20723;-68
2023/08/28 01:28:40;;;;;;;14.35;9.10;;;14.50;81.50;;;;;;9180457;19;20014;-69
2023/08/28 01:31:45;;;;;;;14.82;7.95;;;14.50;81.50;;;;;;9185117;19;20050;-69
2023/08/28 01:34:53;;;;;;;11.80;7.50;;;14.50;81.60;;;;;;9182123;19;20498;-70
2023/08/28 01:38:11;;;;;;;11.68;7.38;;;14.50;81.50;;;;;;9182499;19;20098;-70
2023/08/28 01:41:26;;;;;;;10.38;7.30;;;14.50;81.60;;;;;;9182224;19;20057;-69
2023/08/28 01:44:34;;;;;;;14.93;8.50;;;14.50;81.70;;;;;;9181109;19;20006;-70
2023/08/28 01:47:42;;;;;;;11.55;7.22;;;14.50;81.70;;;;;;9182700;19;20018;-70
2023/08/28 01:50:49;;;;;;;12.55;7.45;;;14.50;81.70;;;;;;9181693;19;20018;-70
2023/08/28 01:53:57;;;;;;;11.93;7.93;;;14.50;81.70;;;;;;9180728;19;20029;-71
2023/08/28 01:57:06;;;;;;;11.70;8.73;;;14.50;81.70;;;;;;9181508;19;20479;-70
2023/08/28 02:00:15;;;;;;;10.80;7.32;;;14.40;81.70;;;;;;9178027;19;20020;-68
2023/08/28 02:03:22;;;;;;;10.50;7.93;;;14.50;81.70;;;;;;9183317;19;20010;-70
2023/08/28 02:06:30;;;;;;;13.10;8.02;;;14.40;81.60;;;;;;9181762;19;20019;-70
2023/08/28 02:09:38;;;;;;;14.52;8.00;;;14.50;81.70;;;;;;9182607;19;20192;-71
2023/08/28 02:12:48;;;;;;;12.13;7.95;;;14.50;81.80;;;;;;9180591;19;20021;-68
2023/08/28 02:15:54;;;;;;;17.05;8.05;;;14.40;81.70;;;;;;9181007;19;20048;-68
2023/08/28 02:19:03;;;;;;;12.77;7.95;;;14.40;81.70;;;;;;9182800;19;20420;-70
2023/08/28 02:22:09;;;;;;;7.95;6.25;;;14.40;81.80;;;;;;9180610;19;20010;-70
2023/08/28 02:25:20;;;;;;;12.32;7.35;;;14.40;81.80;;;;;;9180241;19;20014;-70
2023/08/28 02:28:29;;;;;;;14.05;7.90;;;14.40;81.90;;;;;;9177657;19;20011;-69
2023/08/28 02:31:36;;;;;;;12.45;7.53;;;14.30;81.80;;;;;;9181484;19;20022;-68
2023/08/28 02:34:43;;;;;;;11.02;7.20;;;14.40;81.80;;;;;;9178536;19;20031;-70
2023/08/28 02:37:51;;;;;;;9.20;6.28;;;14.30;81.80;;;;;;9179836;19;20018;-69
2023/08/28 02:41:04;;;;;;;10.10;6.65;;;14.30;81.80;;;;;;9182325;19;20014;-69
2023/08/28 02:44:14;;;;;;;11.98;6.40;;;14.30;81.80;;;;;;9181213;19;20022;-69
2023/08/28 02:47:19;;;;;;;12.98;6.85;;;14.30;81.80;;;;;;9177272;19;20048;-68
2023/08/28 02:50:27;;;;;;;10.50;6.90;;;14.30;81.90;;;;;;9179604;19;20078;-70
2023/08/28 02:53:32;;;;;;;10.95;6.70;;;14.30;81.80;;;;;;9180528;19;20021;-69
2023/08/28 02:56:41;;;;;;;11.25;7.10;;;14.30;81.90;;;;;;9179077;19;20048;-71
2023/08/28 02:59:49;;;;;;;9.77;6.07;;;14.30;81.90;;;;;;9180597;19;20056;-70
2023/08/28 03:02:57;;;;;;;13.02;6.97;;;14.20;81.80;;;;;;9178380;19;20903;-68
2023/08/28 03:06:03;;;;;;;12.43;6.55;;;14.20;81.80;;;;;;9179334;19;20048;-70
2023/08/28 03:09:12;;;;;;;10.50;6.90;;;14.20;81.80;;;;;;9179856;19;20522;-69
2023/08/28 03:12:17;;;;;;;12.15;7.15;;;14.20;81.80;;;;;;9180415;19;20529;-69
2023/08/28 03:15:28;;;;;;;10.98;6.88;;;14.10;81.90;;;;;;9177983;19;20014;-72
2023/08/28 03:18:33;;;;;;;9.80;6.72;;;14.10;82.00;;;;;;9178004;19;20010;-70
2023/08/28 03:21:41;;;;;;;9.52;6.75;;;14.10;82.00;;;;;;9177900;19;20011;-69
2023/08/28 03:24:47;;;;;;;9.75;6.50;;;14.10;82.00;;;;;;9179523;19;20006;-70
2023/08/28 03:27:54;;;;;;;12.60;7.30;;;14.10;82.00;;;;;;9174109;19;20019;-68
2023/08/28 03:31:03;;;;;;;9.88;6.55;;;14.00;82.00;;;;;;9176029;19;20467;-70
2023/08/28 03:34:11;;;;;;;11.23;6.30;;;14.00;82.00;;;;;;9179251;19;20019;-68
2023/08/28 03:37:16;;;;;;;11.52;6.78;;;14.00;81.90;;;;;;9179321;19;20602;-69
2023/08/28 03:40:23;;;;;;;10.35;6.45;;;14.00;82.00;;;;;;9176817;19;20018;-70
2023/08/28 03:43:29;;;;;;;11.70;7.03;;;14.00;82.00;;;;;;9178607;19;20007;-70
2023/08/28 03:46:39;;;;;;;10.50;7.03;;;13.90;82.10;;;;;;9177484;19;20026;-70
2023/08/28 03:49:44;;;;;;;11.70;7.93;;;13.90;82.70;;;;;;9174445;19;20056;-70
2023/08/28 03:52:51;;;;;;;11.48;7.38;;;13.80;82.10;;;;;;9176938;19;20038;-68
2023/08/28 03:55:58;;;;;;;13.20;6.90;;;13.90;82.20;;;;;;9178538;19;20026;-70
2023/08/28 03:59:06;;;;;;;9.18;6.57;;;13.80;82.20;;;;;;9177936;19;20022;-69
2023/08/28 04:02:14;;;;;;;17.48;8.05;;;13.80;82.30;;;;;;9178916;19;20006;-69
2023/08/28 04:05:22;;;;;;;11.07;7.05;;;13.80;82.40;;;;;;9178180;19;20359;-68
2023/08/28 04:08:29;;;;;;;10.85;7.18;;;13.80;82.30;;;;;;9175876;19;20014;-70
2023/08/28 04:11:37;;;;;;;9.75;7.20;;;13.80;82.30;;;;;;9177328;19;20014;-69
2023/08/28 04:14:42;;;;;;;10.93;7.18;;;13.80;82.40;;;;;;9177653;19;20015;-70
2023/08/28 04:17:54;;;;;;;11.00;7.72;;;13.80;82.40;;;;;;9175621;19;20018;-69
2023/08/28 04:20:59;;;;;;;10.57;6.60;;;13.80;82.40;;;;;;9177280;19;20014;-69
2023/08/28 04:24:09;;;;;;;13.93;7.75;;;13.80;82.30;;;;;;9181453;19;20021;-71
2023/08/28 04:27:15;;;;;;;13.27;6.75;;;13.80;82.40;;;;;;9178330;19;20015;-68
2023/08/28 04:30:22;;;;;;;9.95;7.05;;;13.70;82.30;;;;;;9186504;19;20528;-68
2023/08/28 04:33:33;;;;;;;11.00;6.53;;;13.80;82.30;;;;;;9187693;19;20026;-68
2023/08/28 04:36:41;;;;;;;8.18;6.43;;;13.70;82.30;;;;;;9185503;19;20014;-69
2023/08/28 04:39:47;;;;;;;11.98;7.40;;;13.70;82.30;;;;;;9186346;19;20026;-70
2023/08/28 04:42:54;;;;;;;11.80;6.82;;;13.70;82.30;;;;;;9186233;19;20029;-69
2023/08/28 04:46:01;;;;;;;10.57;7.53;;;13.70;82.30;;;;;;9184114;19;20017;-69
2023/08/28 04:49:14;;;;;;;11.18;7.30;;;13.70;82.40;;;;;;9182589;19;20030;-69
2023/08/28 04:52:20;;;;;;;11.63;7.68;;;13.70;82.50;;;;;;9183740;19;20048;-69
2023/08/28 04:55:28;;;;;;;11.02;7.57;;;13.60;82.50;;;;;;9184196;19;20025;-68
2023/08/28 04:58:33;;;;;;;12.45;8.55;;;13.60;82.60;;;;;;9183755;19;20025;-69
2023/08/28 05:01:41;;;;;;;12.77;8.10;;;13.60;82.60;;;;;;9183492;19;20026;-69
2023/08/28 05:04:49;;;;;;;12.60;8.88;;;13.60;82.70;;;;;;9183447;19;20593;-69
2023/08/28 05:07:56;;;;;;;11.73;8.10;;;13.60;82.80;;;;;;9182566;19;20015;-68
2023/08/28 05:11:04;;;;;;;11.48;7.88;;;13.60;82.70;;;;;;9183197;19;20049;-68
2023/08/28 05:14:11;;;;;;;12.60;8.77;;;13.70;82.80;;;;;;9183256;19;20025;-70
2023/08/28 05:17:17;;;;;;;13.15;8.75;;;13.70;82.90;;;;;;9184813;19;20006;-69
2023/08/28 05:20:28;;;;;;;14.50;8.77;;;13.70;82.90;;;;;;9184655;19;21101;-68
2023/08/28 05:23:33;;;;;;;14.70;9.25;;;13.70;83.00;;;;;;9180922;19;20017;-70
2023/08/28 05:26:41;;;;;;;13.07;9.07;;;13.70;82.90;;;;;;9179352;19;20015;-69
2023/08/28 05:29:48;;;;;;;16.70;9.50;;;13.70;82.90;;;;;;9183967;19;20395;-68
2023/08/28 05:32:56;;;;;;;12.43;8.55;;;13.70;83.00;;;;;;9182662;19;20018;-69
2023/08/28 05:36:05;;;;;;;16.98;8.98;;;13.70;83.00;;;;;;9181163;19;20081;-68
2023/08/28 05:39:12;;;;;;;15.73;8.65;;;13.70;83.10;;;;;;9182044;19;20357;-68
2023/08/28 05:42:18;;;;;;;18.15;9.30;;;13.70;83.10;;;;;;9181776;19;20491;-70
2023/08/28 05:45:26;;;;;;;11.93;8.68;;;13.70;83.10;;;;;;9181382;19;20013;-69
2023/08/28 05:48:33;;;;;;;13.68;9.40;;;13.80;83.30;;;;;;9181885;19;20147;-69
2023/08/28 05:51:43;;;;;;;12.27;8.25;;;13.80;83.30;;;;;;9181715;19;20368;-69
2023/08/28 05:54:52;;;;;;;12.55;9.52;;;13.80;83.30;;;;;;9181490;19;20010;-71
2023/08/28 05:58:00;;;;;;;13.68;9.93;;;13.80;83.30;;;;;;9181820;19;20094;-68
2023/08/28 06:01:06;;;;;;;13.50;9.90;;;13.90;83.30;;;;;;9182490;19;20014;-69
2023/08/28 06:04:13;;;;;;;23.45;11.20;;;14.00;83.50;;;;;;9182388;19;20065;-68
2023/08/28 06:07:21;;;;;;;17.77;11.13;;;14.10;83.60;;;;;;9182129;19;20010;-68
2023/08/28 06:10:31;;;;;;;16.02;11.07;;;14.20;83.80;;;;;;9174709;19;20010;-68
2023/08/28 06:13:36;;;;;;;13.23;10.40;;;14.30;83.90;;;;;;9166894;19;20567;-69
2023/08/28 06:16:44;;;;;;;18.23;10.07;;;14.40;83.90;;;;;;9162529;19;20049;-69
2023/08/28 06:19:49;;;;;;;24.48;10.98;;;14.90;84.30;;;;;;9173080;19;20110;-71
2023/08/28 06:23:00;;;;;;;13.98;9.98;;;14.70;84.10;;;;;;9178743;19;20693;-71
2023/08/28 06:26:06;;;;;;;16.08;8.75;;;14.90;84.20;;;;;;9177478;19;20015;-68
2023/08/28 06:29:16;;;;;;;13.90;9.48;;;15.20;84.20;;;;;;9177593;19;20014;-71
2023/08/28 06:32:22;;;;;;;20.23;9.27;;;15.40;84.20;;;;;;9178475;19;20022;-69
2023/08/28 06:35:29;;;;;;;15.20;8.13;;;15.50;84.10;;;;;;9181182;19;20024;-71
2023/08/28 06:38:38;;;;;;;11.93;8.13;;;15.80;84.10;;;;;;9181854;19;20015;-70
2023/08/28 06:41:46;;;;;;;10.77;8.32;;;16.00;84.00;;;;;;9179532;19;20006;-71
2023/08/28 06:44:54;;;;;;;17.23;8.93;;;16.20;83.90;;;;;;9181442;19;20011;-72
2023/08/28 06:48:04;;;;;;;12.93;8.02;;;16.50;83.90;;;;;;9176742;19;20022;-70
2023/08/28 06:51:10;;;;;;;10.05;6.80;;;16.80;83.80;;;;;;9179668;19;20010;-69
2023/08/28 06:54:19;;;;;;;11.40;7.30;;;17.00;83.60;;;;;;9181307;19;20022;-70
2023/08/28 06:57:25;;;;;;;10.00;7.00;;;17.20;83.30;;;;;;9180435;19;20519;-70
2023/08/28 07:00:32;;;;;;;11.43;7.38;;;17.50;83.20;;;;;;9180798;19;20078;-70
2023/08/28 07:03:37;;;;;;;8.18;6.03;;;17.70;83.00;;;;;;9180272;19;20011;-72
2023/08/28 07:06:45;;;;;;;7.68;5.93;;;18.00;82.90;;;;;;9180539;19;20014;-71
2023/08/28 07:09:53;;;;;;;7.65;5.95;;;18.20;82.70;;;;;;9176693;19;21029;-72
2023/08/28 07:13:00;;;;;;;8.15;5.72;;;18.40;82.50;;;;;;9180630;19;20029;-72
2023/08/28 07:16:06;;;;;;;11.85;5.82;;;18.60;82.30;;;;;;9176611;19;20024;-72
2023/08/28 07:19:14;;;;;;;6.60;5.07;;;18.90;82.20;;;;;;9180599;19;20014;-73
2023/08/28 07:22:19;;;;;;;9.15;5.30;;;19.10;81.80;;;;;;9178262;19;20018;-72
2023/08/28 07:25:31;;;;;;;7.97;5.20;;;19.40;81.70;;;;;;9177758;19;20017;-72
2023/08/28 07:28:46;;;;;;;11.00;5.22;;;19.60;81.40;;;;;;9172182;19;20014;-71
2023/08/28 07:31:54;;;;;;;8.38;5.18;;;19.90;81.00;;;;;;9178558;19;20384;-73
2023/08/28 07:35:00;;;;;;;7.22;4.70;;;20.10;80.70;;;;;;9179125;19;20020;-72
2023/08/28 07:38:09;;;;;;;7.63;4.35;;;20.20;80.50;;;;;;9176929;19;20022;-73
2023/08/28 07:41:20;;;;;;;6.75;3.95;;;20.40;80.20;;;;;;9178050;19;20073;-73
2023/08/28 07:44:29;;;;;;;6.78;4.68;;;20.50;79.80;;;;;;9177854;19;20022;-73
2023/08/28 07:47:41;;;;;;;5.32;4.00;;;20.70;79.70;;;;;;9178073;19;20029;-72
2023/08/28 07:50:55;;;;;;;7.70;3.90;;;20.80;79.40;;;;;;9178243;19;20123;-74
2023/08/28 07:54:02;;;;;;;9.77;4.10;;;20.90;79.10;;;;;;9174799;19;20656;-71
2023/08/28 07:57:12;;;;;;;7.43;3.65;;;20.90;78.90;;;;;;9172898;19;20015;-71
2023/08/28 08:00:21;;;;;;;4.88;3.42;;;21.00;78.60;;;;;;9173521;19;20127;-70
2023/08/28 08:03:32;;;;;;;4.22;2.83;;;21.10;78.50;;;;;;9176606;19;20015;-72
2023/08/28 08:06:46;;;;;;;6.35;2.47;;;21.10;78.40;;;;;;9176233;19;20039;-78
2023/08/28 08:09:57;;;;;;;5.50;2.88;;;21.20;78.10;;;;;;9174737;19;20010;-76
2023/08/28 08:13:09;;;;;;;4.50;2.35;;;21.20;78.10;;;;;;9171915;19;20095;-73
2023/08/28 08:16:16;;;;;;;5.53;2.75;;;21.30;78.10;;;;;;9170618;19;20010;-76
2023/08/28 08:19:24;;;;;;;7.25;2.47;;;21.30;78.10;;;;;;9171748;19;20620;-76
2023/08/28 08:22:36;;;;;;;4.03;2.03;;;21.40;78.00;;;;;;9174033;19;20014;-75
2023/08/28 08:25:49;;;;;;;5.00;1.80;;;21.40;77.80;;;;;;9169554;19;20017;-75
2023/08/28 08:29:01;;;;;;;2.97;1.60;;;21.50;77.50;;;;;;9171955;19;20014;-73
2023/08/28 08:32:10;;;;;;;10.35;1.85;;;21.50;77.40;;;;;;9171973;19;20018;-75
2023/08/28 08:35:18;;;;;;;4.60;1.63;;;21.50;77.30;;;;;;9173457;19;20015;-72
2023/08/28 08:38:27;;;;;;;2.55;1.23;;;21.60;77.20;;;;;;9174026;19;20403;-75
2023/08/28 08:41:36;;;;;;;5.47;1.58;;;21.70;76.90;;;;;;9168401;19;20015;-77
2023/08/28 08:44:51;;;;;;;3.83;1.63;;;21.70;76.70;;;;;;9168039;19;20014;-76
2023/08/28 08:48:12;;;;;;;5.28;1.80;;;21.80;76.70;;;;;;9165944;19;20018;-75
2023/08/28 08:51:26;;;;;;;8.43;1.80;;;21.80;76.50;;;;;;9170811;19;20029;-72
2023/08/28 08:54:42;;;;;;;4.55;1.75;;;21.80;76.40;;;;;;9168154;19;20135;-73
2023/08/28 08:57:55;;;;;;;2.40;0.70;;;21.90;76.40;;;;;;9165747;19;20022;-73
2023/08/28 09:01:05;;;;;;;6.57;1.13;;;22.00;76.30;;;;;;9162718;19;20014;-74
2023/08/28 09:04:16;;;;;;;1.80;0.77;;;22.10;76.10;;;;;;9168072;19;21716;-73
2023/08/28 09:07:26;;;;;;;4.43;0.70;;;22.20;76.10;;;;;;9160265;19;20017;-71
2023/08/28 09:10:31;;;;;;;2.00;1.05;;;22.30;75.90;;;;;;9171404;19;20056;-72
2023/08/28 09:13:41;;;;;;;3.80;0.93;;;22.50;75.80;;;;;;9179993;19;20014;-72
2023/08/28 09:16:50;;;;;;;3.28;0.88;;;22.60;75.40;;;;;;9182684;19;20416;-70
2023/08/28 09:19:57;;;;;;;3.00;0.70;;;22.80;75.10;;;;;;9184087;19;20476;-72
2023/08/28 09:23:03;;;;;;;3.90;0.95;;;22.90;74.80;;;;;;9181837;19;20092;-73
2023/08/28 09:26:10;;;;;;;2.78;0.70;;;23.00;74.60;;;;;;9178248;19;20018;-71
2023/08/28 09:29:16;;;;;;;4.40;1.20;;;23.10;74.30;;;;;;9181044;19;20046;-72
2023/08/28 09:32:29;;;;;;;3.65;1.20;;;23.20;74.10;;;;;;9175838;19;20014;-69
2023/08/28 09:35:39;;;;;;;1.83;0.90;;;23.30;73.50;;;;;;9174094;19;21877;-73
2023/08/28 09:38:49;;;;;;;4.28;1.20;;;23.40;73.20;;;;;;9174620;19;20018;-76
2023/08/28 09:41:58;;;;;;;2.40;0.95;;;23.50;73.30;;;;;;9173761;19;20375;-74
2023/08/28 09:45:09;;;;;;;0.98;0.68;;;23.60;73.10;;;;;;9173132;19;20011;-73
2023/08/28 09:48:17;;;;;;;8.07;0.93;;;23.70;72.80;;;;;;9180235;19;20018;-74
2023/08/28 09:51:41;;;;;;;3.05;0.90;;;23.80;72.50;;;;;;9172273;19;20006;-74
2023/08/28 09:55:04;;;;;;;1.98;0.63;;;23.90;71.80;;;;;;9176016;19;20839;-72
2023/08/28 09:58:13;;;;;;;0.73;0.45;;;24.00;71.90;;;;;;9174817;19;20033;-73
2023/08/28 10:01:21;;;;;;;1.35;0.65;;;24.00;71.60;;;;;;9177082;19;20026;-73
2023/08/28 10:04:33;;;;;;;2.17;0.80;;;24.00;71.30;;;;;;9174824;19;20010;-71
2023/08/28 10:07:41;;;;;;;2.90;0.68;;;23.90;71.00;;;;;;9176252;19;20037;-71
2023/08/28 10:10:49;;;;;;;2.08;0.70;;;23.90;70.90;;;;;;9173408;19;20345;-70
2023/08/28 10:13:56;;;;;;;1.70;0.68;;;23.80;70.90;;;;;;9173916;19;20018;-70
2023/08/28 10:17:07;;;;;;;1.27;0.65;;;23.90;70.90;;;;;;9175607;19;20122;-69
2023/08/28 10:20:19;;;;;;;2.28;0.70;;;23.90;70.60;;;;;;9176029;19;20033;-73
2023/08/28 10:23:34;;;;;;;2.88;0.73;;;24.00;70.50;;;;;;9175333;19;20086;-74
2023/08/28 10:26:43;;;;;;;6.10;1.00;;;24.10;70.50;;;;;;9171571;19;20023;-73
2023/08/28 10:29:50;;;;;;;4.35;0.63;;;24.20;70.60;;;;;;9174908;19;20353;-71
2023/08/28 10:32:58;;;;;;;2.00;0.80;;;24.30;70.30;;;;;;9177773;19;20034;-74
2023/08/28 10:36:16;;;;;;;3.88;0.63;;;24.50;69.90;;;;;;9173391;19;21826;-74
2023/08/28 10:39:44;;;;;;;;;;;24.70;69.50;;;;;;9177123;19;20026;-76
2023/08/28 10:42:57;;;;;;;1.27;0.32;;;24.80;70.20;;;;;;9176177;19;19915;-75
2023/08/28 10:46:04;;;;;;;4.20;0.63;;;25.00;69.70;;;;;;9171685;19;20014;-75
2023/08/28 10:49:12;;;;;;;1.55;0.70;;;25.10;69.30;;;;;;9172367;19;20015;-74
2023/08/28 10:52:22;;;;;;;3.08;0.70;;;25.20;68.90;;;;;;9171234;19;20022;-77
2023/08/28 10:55:36;;;;;;;1.55;0.75;;;25.30;68.30;;;;;;9173427;19;20030;-74
2023/08/28 10:58:41;;;;;;;1.00;0.68;;;25.30;68.10;;;;;;9174901;19;20113;-73
2023/08/28 11:01:57;;;;;;;4.00;0.70;;;25.30;67.80;;;;;;9169787;19;20053;-74
2023/08/28 11:05:15;;;;;;;1.58;0.30;;;25.30;67.40;;;;;;9172998;19;20039;-74
2023/08/28 11:08:35;;;;;;;3.15;0.40;;;25.30;67.20;;;;;;9173352;19;20388;-75
2023/08/28 11:11:42;;;;;;;2.15;0.60;;;25.30;67.20;;;;;;9173647;19;20030;-75
2023/08/28 11:15:00;;;;;;;2.33;0.60;;;25.30;67.70;;;;;;9173190;19;20471;-75
2023/08/28 11:18:30;;;;;;;1.23;0.85;;;25.30;66.50;;;;;;9175375;19;20014;-73
2023/08/28 11:21:42;;;;;;;3.30;0.75;;;25.30;66.30;;;;;;9167239;19;20010;-71
2023/08/28 11:24:55;;;;;;;2.45;0.57;;;25.30;66.60;;;;;;9171000;19;20014;-72
2023/08/28 11:28:03;;;;;;;1.75;0.68;;;25.40;66.20;;;;;;9166583;19;20028;-71
2023/08/28 11:31:09;;;;;;;1.60;0.50;;;25.40;66.20;;;;;;9167251;19;20570;-72
2023/08/28 11:34:16;;;;;;;1.83;0.70;;;25.50;65.90;;;;;;9173328;19;20006;-70
2023/08/28 11:37:32;;;;;;;1.45;0.57;;;25.50;65.70;;;;;;9177065;19;20036;-72
2023/08/28 11:40:43;;;;;;;1.75;0.60;;;25.50;65.10;;;;;;9179542;19;20014;-73
2023/08/28 11:43:48;;;;;;;2.38;0.73;;;25.50;65.40;;;;;;9176360;19;20019;-73
2023/08/28 11:46:58;;;;;;;2.40;0.80;;;25.60;65.40;;;;;;9178836;19;20018;-73
2023/08/28 11:50:06;;;;;;;4.15;0.65;;;25.60;65.20;;;;;;9176457;19;20078;-74
2023/08/28 11:53:17;;;;;;;1.83;0.60;;;25.70;65.10;;;;;;9176760;19;20028;-72
2023/08/28 11:56:27;;;;;;;2.70;0.80;;;25.70;65.00;;;;;;9176696;19;20063;-70
2023/08/28 11:59:35;;;;;;;3.60;1.02;;;25.70;64.80;;;;;;9176554;19;20025;-72
2023/08/28 12:02:42;;;;;;;3.88;0.85;;;25.70;65.00;;;;;;9176387;19;20563;-70
2023/08/28 12:05:50;;;;;;;5.55;0.70;;;25.60;64.70;;;;;;9175740;19;20017;-73
2023/08/28 12:08:55;;;;;;;1.70;0.52;;;25.60;64.70;;;;;;9177736;19;20033;-72
2023/08/28 12:12:06;;;;;;;1.95;0.60;;;25.60;64.60;;;;;;9174251;19;20018;-72
2023/08/28 12:15:12;;;;;;;1.15;0.50;;;25.60;64.20;;;;;;9175234;19;20508;-71
2023/08/28 12:18:19;;;;;;;3.40;0.70;;;25.60;64.10;;;;;;9173702;19;20015;-63
2023/08/28 12:21:37;;;;;;;1.65;0.60;;;25.50;63.80;;;;;;9168114;19;20018;-64
2023/08/28 12:24:45;;;;;;;1.75;0.50;;;25.40;63.50;;;;;;9171398;19;20468;-63
2023/08/28 12:27:53;;;;;;;3.03;0.65;;;25.40;63.60;;;;;;9166056;19;20033;-61
2023/08/28 12:31:01;;;;;;;1.42;0.50;;;25.40;63.60;;;;;;9169572;19;20025;-63
2023/08/28 12:34:09;;;;;;;2.53;0.68;;;25.50;63.70;;;;;;9171238;19;20029;-61
2023/08/28 12:37:18;;;;;;;1.58;0.68;;;25.50;63.50;;;;;;9167774;19;20488;-59
2023/08/28 12:40:23;;;;;;;1.75;0.70;;;25.60;63.50;;;;;;9171598;19;20014;-60
2023/08/28 12:43:38;;;;;;;1.95;0.68;;;25.60;63.40;;;;;;9168180;19;20014;-61
2023/08/28 12:46:43;;;;;;;2.75;0.80;;;25.60;63.00;;;;;;9182558;19;20488;-58
2023/08/28 12:49:51;;;;;;;1.42;0.77;;;25.60;63.10;;;;;;9174088;19;20018;-58
2023/08/28 12:52:57;;;;;;;1.23;0.60;;;25.60;62.80;;;;;;9177275;19;20038;-61
2023/08/28 12:56:04;;;;;;;2.65;0.70;;;25.60;62.70;;;;;;9180615;19;20014;-60
2023/08/28 12:59:12;;;;;;;2.97;1.15;;;25.60;62.40;;;;;;9179376;19;20017;-60
2023/08/28 13:02:20;;;;;;;2.13;0.50;;;25.60;62.30;;;;;;9179512;19;20006;-60
2023/08/28 13:05:25;;;;;;;3.28;0.70;;;25.50;62.40;;;;;;9179756;19;20025;-61
2023/08/28 13:08:32;;;;;;;1.20;0.52;;;25.40;62.20;;;;;;9178573;19;20025;-59
2023/08/28 13:11:38;;;;;;;3.30;0.68;;;25.20;62.00;;;;;;9177614;19;20438;-59
2023/08/28 13:14:48;;;;;;;5.35;0.65;;;25.10;61.80;;;;;;9179053;19;20014;-59
2023/08/28 13:17:53;;;;;;;1.58;0.60;;;25.00;62.40;;;;;;9177371;19;20021;-60
2023/08/28 13:21:00;;;;;;;1.50;0.50;;;24.90;61.90;;;;;;9177899;19;20014;-59
2023/08/28 13:24:06;;;;;;;1.13;0.70;;;24.80;61.90;;;;;;9177733;19;20097;-60
2023/08/28 13:27:14;;;;;;;1.35;0.63;;;24.70;62.00;;;;;;9176066;19;20021;-60
2023/08/28 13:30:22;;;;;;;1.65;0.70;;;24.60;62.10;;;;;;9177986;19;20022;-60
2023/08/28 13:33:29;;;;;;;0.68;0.40;;;24.50;62.10;;;;;;9173154;19;20006;-58
2023/08/28 13:36:35;;;;;;;1.73;0.50;;;24.40;62.10;;;;;;9175635;19;20045;-61
2023/08/28 13:39:43;;;;;;;2.08;0.60;;;24.40;62.10;;;;;;9179491;19;20719;-60
2023/08/28 13:42:48;;;;;;;1.75;0.55;;;24.30;62.10;;;;;;9177999;19;20439;-62
2023/08/28 13:45:58;;;;;;;3.13;0.50;;;24.20;62.10;;;;;;9175273;19;20357;-64
2023/08/28 13:49:04;;;;;;;1.60;0.60;;;24.10;62.10;;;;;;9172130;19;20018;-60
2023/08/28 13:52:11;;;;;;;3.40;0.93;;;24.00;62.20;;;;;;9178214;19;20010;-59
2023/08/28 13:55:17;;;;;;;2.22;0.60;;;23.90;62.20;;;;;;9175573;19;20018;-58
2023/08/28 13:58:24;;;;;;;3.55;0.45;;;23.90;62.40;;;;;;9177391;19;20007;-60
2023/08/28 14:01:33;;;;;;;2.35;1.05;;;23.70;62.30;;;;;;9176623;19;20496;-58
2023/08/28 14:04:41;;;;;;;1.52;0.90;;;23.70;62.30;;;;;;9175542;19;20018;-63
2023/08/28 14:07:46;;;;;;;2.60;0.80;;;23.60;62.40;;;;;;9174116;19;20018;-61
2023/08/28 14:10:55;;;;;;;2.60;0.90;;;23.60;62.60;;;;;;9178018;19;20014;-60
2023/08/28 14:14:00;;;;;;;3.13;0.65;;;23.50;63.30;;;;;;9173926;19;20014;-60
2023/08/28 14:17:10;;;;;;;3.33;0.80;;;23.60;67.30;;;;;;9177974;19;20019;-61
2023/08/28 14:20:15;;;;;;;3.72;0.80;;;23.50;65.20;;;;;;9174570;19;20322;-58
2023/08/28 14:23:23;;;;;;;3.45;0.85;;;23.50;65.00;;;;;;9175374;19;20010;-62
2023/08/28 14:26:29;;;;;;;3.25;0.93;;;23.40;65.60;;;;;;9171984;19;20058;-60
2023/08/28 14:29:37;;;;;;;3.70;0.90;;;23.40;67.30;;;;;;9175013;19;20503;-59
2023/08/28 14:32:44;;;;;;;1.52;0.65;;;23.40;66.60;;;;;;9172327;19;20386;-61
2023/08/28 14:35:52;;;;;;;2.70;0.90;;;23.30;64.40;;;;;;9173515;19;20002;-59
2023/08/28 14:38:57;;;;;;;1.77;0.80;;;23.20;63.20;;;;;;9175344;19;20476;-58
2023/08/28 14:42:05;;;;;;;2.72;0.93;;;23.20;63.10;;;;;;9173594;19;20352;-59
2023/08/28 14:45:11;;;;;;;2.08;0.57;;;23.10;63.00;;;;;;9171993;19;20022;-60
2023/08/28 14:48:21;;;;;;;2.60;0.80;;;23.10;62.90;;;;;;9168138;19;20021;-59
2023/08/28 14:51:27;;;;;;;0.80;0.60;;;23.00;62.70;;;;;;9169432;19;20029;-61
2023/08/28 14:54:34;;;;;;;0.98;0.38;;;23.00;62.70;;;;;;9168878;19;20022;-59
2023/08/28 14:57:40;;;;;;;3.53;0.82;;;23.00;62.70;;;;;;9171455;19;20018;-59
2023/08/28 15:00:53;;;;;;;4.13;0.60;;;22.90;62.60;;;;;;9172684;19;20021;-59
2023/08/28 15:04:01;;;;;;;2.80;0.70;;;22.90;62.40;;;;;;9170896;19;20017;-60
2023/08/28 15:07:09;;;;;;;1.73;0.57;;;22.90;62.10;;;;;;9170486;19;20497;-61
2023/08/28 15:10:14;;;;;;;1.13;0.40;;;22.90;62.10;;;;;;9168982;19;20014;-60
2023/08/28 15:13:21;;;;;;;2.05;0.55;;;22.90;62.00;;;;;;9169784;19;20018;-60
2023/08/28 15:16:27;;;;;;;1.77;0.70;;;22.90;62.00;;;;;;9172705;19;20094;-59
2023/08/28 15:19:37;;;;;;;1.25;0.50;;;22.90;62.00;;;;;;9170001;19;20026;-60
2023/08/28 15:22:43;;;;;;;1.02;0.40;;;22.80;61.90;;;;;;9169815;19;20018;-62
2023/08/28 15:25:50;;;;;;;1.42;0.63;;;22.80;62.00;;;;;;9166378;19;20112;-63
2023/08/28 15:28:57;;;;;;;3.53;0.55;;;22.80;61.90;;;;;;9170260;19;20048;-63
2023/08/28 15:32:04;;;;;;;2.60;0.82;;;22.80;61.90;;;;;;9174372;19;20002;-64
2023/08/28 15:35:13;;;;;;;1.17;0.68;;;22.80;62.00;;;;;;9030626;19;2783112;-63
2023/08/28 15:38:21;;;;;;;0.90;0.40;;;22.70;62.00;;;;;;9175603;19;20005;-65
2023/08/28 15:41:26;;;;;;;3.03;0.80;;;22.60;62.00;;;;;;9171197;19;20018;-63
2023/08/28 15:44:33;;;;;;;3.38;0.88;;;22.50;62.20;;;;;;9170383;19;20417;-64
2023/08/28 15:47:39;;;;;;;1.75;0.63;;;22.60;62.40;;;;;;9171493;19;20025;-66
2023/08/28 15:50:50;;;;;;;2.38;0.80;;;22.50;62.50;;;;;;9172373;19;20067;-66
2023/08/28 15:53:55;;;;;;;3.95;0.98;;;22.40;62.40;;;;;;9167918;19;20022;-64
2023/08/28 15:57:03;;;;;;;1.25;0.50;;;22.40;62.70;;;;;;9170788;19;20360;-64
2023/08/28 16:00:10;;;;;;;2.35;0.77;;;22.40;62.70;;;;;;9169341;19;20582;-64
2023/08/28 16:03:17;;;;;;;1.23;0.55;;;22.40;62.70;;;;;;9163945;19;20018;-64
2023/08/28 16:06:26;;;;;;;1.38;0.70;;;22.40;62.70;;;;;;9157568;19;20094;-63
2023/08/28 16:09:33;;;;;;;2.47;0.60;;;22.40;62.80;;;;;;9152936;19;20018;-66
2023/08/28 16:12:39;;;;;;;1.58;0.73;;;22.30;62.90;;;;;;9154828;19;20072;-68
2023/08/28 16:15:47;;;;;;;1.52;0.60;;;22.30;63.00;;;;;;9156703;19;20354;-64